sensor_id;sensor_type;location;lat;lon;timestamp;temperature;humidity
7666;DHT22;3875;46.562;4.898;2022-12-24T00:02:00;13.70;96.40
7666;DHT22;3875;46.562;4.898;2022-12-24T00:04:26;13.70;96.30
7666;DHT22;3875;46.562;4.898;2022-12-24T00:06:51;13.70;96.40
7666;DHT22;3875;46.562;4.898;2022-12-24T00:09:17;13.70;96.30
7666;DHT22;3875;46.562;4.898;2022-12-24T00:11:43;13.70;96.40
7666;DHT22;3875;46.562;4.898;2022-12-24T00:14:09;13.70;96.40
7666;DHT22;3875;46.562;4.898;2022-12-24T00:16:34;13.70;96.40
7666;DHT22;3875;46.562;4.898;2022-12-24T00:19:00;13.70;96.30
7666;DHT22;3875;46.562;4.898;2022-12-24T00:21:26;13.70;96.20
7666;DHT22;3875;46.562;4.898;2022-12-24T00:23:52;13.70;96.20
7666;DHT22;3875;46.562;4.898;2022-12-24T00:26:17;13.70;96.20
7666;DHT22;3875;46.562;4.898;2022-12-24T00:28:43;13.70;96.20
7666;DHT22;3875;46.562;4.898;2022-12-24T00:31:11;13.70;96.10
7666;DHT22;3875;46.562;4.898;2022-12-24T00:33:37;13.70;96.10
7666;DHT22;3875;46.562;4.898;2022-12-24T00:36:04;13.70;96.10
7666;DHT22;3875;46.562;4.898;2022-12-24T00:38:30;13.60;96.00
7666;DHT22;3875;46.562;4.898;2022-12-24T00:40:59;13.70;96.00
7666;DHT22;3875;46.562;4.898;2022-12-24T00:43:27;13.70;96.00
7666;DHT22;3875;46.562;4.898;2022-12-24T00:45:52;13.70;96.00
7666;DHT22;3875;46.562;4.898;2022-12-24T00:48:18;13.70;95.80
7666;DHT22;3875;46.562;4.898;2022-12-24T00:50:44;13.70;95.80
7666;DHT22;3875;46.562;4.898;2022-12-24T00:53:09;13.70;95.90
7666;DHT22;3875;46.562;4.898;2022-12-24T00:55:35;13.70;95.80
7666;DHT22;3875;46.562;4.898;2022-12-24T00:58:01;13.70;95.80
7666;DHT22;3875;46.562;4.898;2022-12-24T01:00:26;13.70;95.80
7666;DHT22;3875;46.562;4.898;2022-12-24T01:02:52;13.70;95.90
7666;DHT22;3875;46.562;4.898;2022-12-24T01:05:18;13.70;95.80
7666;DHT22;3875;46.562;4.898;2022-12-24T01:07:46;13.70;95.90
7666;DHT22;3875;46.562;4.898;2022-12-24T01:10:17;13.80;95.90
7666;DHT22;3875;46.562;4.898;2022-12-24T01:12:44;13.80;95.90
7666;DHT22;3875;46.562;4.898;2022-12-24T01:15:11;13.80;95.80
7666;DHT22;3875;46.562;4.898;2022-12-24T01:17:37;13.80;95.90
7666;DHT22;3875;46.562;4.898;2022-12-24T01:20:08;13.80;95.90
7666;DHT22;3875;46.562;4.898;2022-12-24T01:22:35;13.80;95.90
7666;DHT22;3875;46.562;4.898;2022-12-24T01:25:01;13.70;95.90
7666;DHT22;3875;46.562;4.898;2022-12-24T01:27:27;13.70;95.90
7666;DHT22;3875;46.562;4.898;2022-12-24T01:29:52;13.70;96.00
7666;DHT22;3875;46.562;4.898;2022-12-24T01:32:18;13.70;96.10
7666;DHT22;3875;46.562;4.898;2022-12-24T01:34:44;13.70;96.10
7666;DHT22;3875;46.562;4.898;2022-12-24T01:37:09;13.70;96.10
7666;DHT22;3875;46.562;4.898;2022-12-24T01:39:35;13.70;96.10
7666;DHT22;3875;46.562;4.898;2022-12-24T01:42:01;13.70;96.10
7666;DHT22;3875;46.562;4.898;2022-12-24T01:44:49;13.70;96.10
7666;DHT22;3875;46.562;4.898;2022-12-24T01:47:26;13.60;96.30
7666;DHT22;3875;46.562;4.898;2022-12-24T01:49:57;13.70;96.40
7666;DHT22;3875;46.562;4.898;2022-12-24T01:52:30;13.70;96.40
7666;DHT22;3875;46.562;4.898;2022-12-24T01:55:09;13.70;96.30
7666;DHT22;3875;46.562;4.898;2022-12-24T01:57:43;13.70;96.20
7666;DHT22;3875;46.562;4.898;2022-12-24T02:00:12;13.70;96.30
7666;DHT22;3875;46.562;4.898;2022-12-24T02:02:40;13.70;96.40
7666;DHT22;3875;46.562;4.898;2022-12-24T02:05:16;13.60;96.40
7666;DHT22;3875;46.562;4.898;2022-12-24T02:07:44;13.60;96.40
7666;DHT22;3875;46.562;4.898;2022-12-24T02:10:12;13.60;96.40
7666;DHT22;3875;46.562;4.898;2022-12-24T02:12:39;13.60;96.40
7666;DHT22;3875;46.562;4.898;2022-12-24T02:15:08;13.60;96.50
7666;DHT22;3875;46.562;4.898;2022-12-24T02:31:55;13.40;97.10
7666;DHT22;3875;46.562;4.898;2022-12-24T02:34:39;13.40;97.20
7666;DHT22;3875;46.562;4.898;2022-12-24T02:37:22;13.40;97.20
7666;DHT22;3875;46.562;4.898;2022-12-24T02:40:00;13.40;97.40
7666;DHT22;3875;46.562;4.898;2022-12-24T02:42:31;13.40;97.50
7666;DHT22;3875;46.562;4.898;2022-12-24T02:45:06;13.40;97.50
7666;DHT22;3875;46.562;4.898;2022-12-24T02:47:34;13.50;97.40
7666;DHT22;3875;46.562;4.898;2022-12-24T02:50:02;13.50;97.40
7666;DHT22;3875;46.562;4.898;2022-12-24T02:52:32;13.50;97.30
7666;DHT22;3875;46.562;4.898;2022-12-24T02:55:03;13.50;97.40
7666;DHT22;3875;46.562;4.898;2022-12-24T02:57:49;13.50;97.40
7666;DHT22;3875;46.562;4.898;2022-12-24T03:00:18;13.50;97.40
7666;DHT22;3875;46.562;4.898;2022-12-24T03:06:36;13.60;97.40
7666;DHT22;3875;46.562;4.898;2022-12-24T03:11:13;13.50;97.40
7666;DHT22;3875;46.562;4.898;2022-12-24T03:13:43;13.50;97.40
7666;DHT22;3875;46.562;4.898;2022-12-24T03:16:16;13.50;97.50
7666;DHT22;3875;46.562;4.898;2022-12-24T03:18:45;13.50;97.60
7666;DHT22;3875;46.562;4.898;2022-12-24T03:21:28;13.50;97.60
7666;DHT22;3875;46.562;4.898;2022-12-24T03:23:56;13.50;97.60
7666;DHT22;3875;46.562;4.898;2022-12-24T03:26:24;13.50;97.60
7666;DHT22;3875;46.562;4.898;2022-12-24T03:28:51;13.50;97.60
7666;DHT22;3875;46.562;4.898;2022-12-24T03:31:17;13.50;97.60
7666;DHT22;3875;46.562;4.898;2022-12-24T03:33:43;13.50;97.50
7666;DHT22;3875;46.562;4.898;2022-12-24T03:36:10;13.50;97.50
7666;DHT22;3875;46.562;4.898;2022-12-24T03:38:36;13.50;97.50
7666;DHT22;3875;46.562;4.898;2022-12-24T03:41:02;13.50;97.50
7666;DHT22;3875;46.562;4.898;2022-12-24T03:43:28;13.50;97.40
7666;DHT22;3875;46.562;4.898;2022-12-24T03:45:54;13.50;97.40
7666;DHT22;3875;46.562;4.898;2022-12-24T03:48:20;13.50;97.40
7666;DHT22;3875;46.562;4.898;2022-12-24T03:50:45;13.50;97.40
7666;DHT22;3875;46.562;4.898;2022-12-24T03:53:11;13.50;97.40
7666;DHT22;3875;46.562;4.898;2022-12-24T03:55:37;13.50;97.30
7666;DHT22;3875;46.562;4.898;2022-12-24T03:58:03;13.50;97.20
7666;DHT22;3875;46.562;4.898;2022-12-24T04:00:29;13.50;97.20
7666;DHT22;3875;46.562;4.898;2022-12-24T04:02:55;13.50;97.10
7666;DHT22;3875;46.562;4.898;2022-12-24T04:05:21;13.50;97.00
7666;DHT22;3875;46.562;4.898;2022-12-24T04:07:47;13.50;97.00
7666;DHT22;3875;46.562;4.898;2022-12-24T04:10:14;13.50;96.80
7666;DHT22;3875;46.562;4.898;2022-12-24T04:12:41;13.50;96.80
7666;DHT22;3875;46.562;4.898;2022-12-24T04:15:08;13.40;96.60
7666;DHT22;3875;46.562;4.898;2022-12-24T04:17:33;13.40;96.50
7666;DHT22;3875;46.562;4.898;2022-12-24T04:19:59;13.40;96.40
7666;DHT22;3875;46.562;4.898;2022-12-24T04:22:25;13.40;96.20
7666;DHT22;3875;46.562;4.898;2022-12-24T04:24:51;13.40;95.90
7666;DHT22;3875;46.562;4.898;2022-12-24T04:27:17;13.40;95.80
7666;DHT22;3875;46.562;4.898;2022-12-24T04:29:43;13.40;95.30
7666;DHT22;3875;46.562;4.898;2022-12-24T04:32:08;13.40;95.30
7666;DHT22;3875;46.562;4.898;2022-12-24T04:34:35;13.40;95.00
7666;DHT22;3875;46.562;4.898;2022-12-24T04:37:01;13.40;95.00
7666;DHT22;3875;46.562;4.898;2022-12-24T04:39:26;13.40;94.70
7666;DHT22;3875;46.562;4.898;2022-12-24T04:41:52;13.40;94.30
7666;DHT22;3875;46.562;4.898;2022-12-24T04:44:18;13.40;94.50
7666;DHT22;3875;46.562;4.898;2022-12-24T04:46:43;13.40;94.30
7666;DHT22;3875;46.562;4.898;2022-12-24T04:49:09;13.40;94.40
7666;DHT22;3875;46.562;4.898;2022-12-24T04:51:35;13.40;94.30
7666;DHT22;3875;46.562;4.898;2022-12-24T04:54:01;13.40;94.20
7666;DHT22;3875;46.562;4.898;2022-12-24T04:56:30;13.40;94.10
7666;DHT22;3875;46.562;4.898;2022-12-24T04:58:57;13.40;94.00
7666;DHT22;3875;46.562;4.898;2022-12-24T05:01:25;13.40;94.10
7666;DHT22;3875;46.562;4.898;2022-12-24T05:03:52;13.40;94.00
7666;DHT22;3875;46.562;4.898;2022-12-24T05:06:21;13.40;94.00
7666;DHT22;3875;46.562;4.898;2022-12-24T05:08:47;13.30;94.10
7666;DHT22;3875;46.562;4.898;2022-12-24T05:11:13;13.30;94.00
7666;DHT22;3875;46.562;4.898;2022-12-24T05:13:43;13.30;94.00
7666;DHT22;3875;46.562;4.898;2022-12-24T05:16:10;13.30;93.80
7666;DHT22;3875;46.562;4.898;2022-12-24T05:18:36;13.20;93.10
7666;DHT22;3875;46.562;4.898;2022-12-24T05:21:02;13.20;93.40
7666;DHT22;3875;46.562;4.898;2022-12-24T05:23:28;13.20;93.00
7666;DHT22;3875;46.562;4.898;2022-12-24T05:28:59;13.20;92.90
7666;DHT22;3875;46.562;4.898;2022-12-24T05:31:26;13.10;92.20
7666;DHT22;3875;46.562;4.898;2022-12-24T05:33:52;13.10;92.70
7666;DHT22;3875;46.562;4.898;2022-12-24T05:36:19;13.00;92.10
7666;DHT22;3875;46.562;4.898;2022-12-24T05:38:45;12.90;92.50
7666;DHT22;3875;46.562;4.898;2022-12-24T05:41:11;12.80;92.70
7666;DHT22;3875;46.562;4.898;2022-12-24T05:43:37;12.80;92.80
7666;DHT22;3875;46.562;4.898;2022-12-24T05:46:06;12.80;92.90
7666;DHT22;3875;46.562;4.898;2022-12-24T05:48:33;12.80;93.10
7666;DHT22;3875;46.562;4.898;2022-12-24T05:51:03;12.80;93.10
7666;DHT22;3875;46.562;4.898;2022-12-24T05:53:29;12.80;93.10
7666;DHT22;3875;46.562;4.898;2022-12-24T05:56:04;12.70;93.20
7666;DHT22;3875;46.562;4.898;2022-12-24T05:58:31;12.70;93.10
7666;DHT22;3875;46.562;4.898;2022-12-24T06:00:57;12.70;93.10
7666;DHT22;3875;46.562;4.898;2022-12-24T06:03:22;12.70;93.10
7666;DHT22;3875;46.562;4.898;2022-12-24T06:05:48;12.70;93.10
7666;DHT22;3875;46.562;4.898;2022-12-24T06:08:21;12.70;93.20
7666;DHT22;3875;46.562;4.898;2022-12-24T06:10:56;12.60;93.20
7666;DHT22;3875;46.562;4.898;2022-12-24T06:13:22;12.60;93.20
7666;DHT22;3875;46.562;4.898;2022-12-24T06:15:48;12.60;93.30
7666;DHT22;3875;46.562;4.898;2022-12-24T06:18:14;12.70;93.30
7666;DHT22;3875;46.562;4.898;2022-12-24T06:20:39;12.60;92.90
7666;DHT22;3875;46.562;4.898;2022-12-24T06:23:05;12.60;93.00
7666;DHT22;3875;46.562;4.898;2022-12-24T06:25:31;12.70;93.10
7666;DHT22;3875;46.562;4.898;2022-12-24T06:27:56;12.70;93.00
7666;DHT22;3875;46.562;4.898;2022-12-24T06:30:22;12.70;93.00
7666;DHT22;3875;46.562;4.898;2022-12-24T06:32:49;12.70;92.80
7666;DHT22;3875;46.562;4.898;2022-12-24T06:35:14;12.70;92.80
7666;DHT22;3875;46.562;4.898;2022-12-24T06:37:40;12.70;92.70
7666;DHT22;3875;46.562;4.898;2022-12-24T06:40:06;12.60;92.70
7666;DHT22;3875;46.562;4.898;2022-12-24T06:42:32;12.70;92.70
7666;DHT22;3875;46.562;4.898;2022-12-24T06:44:58;12.70;92.80
7666;DHT22;3875;46.562;4.898;2022-12-24T06:47:23;12.70;92.80
7666;DHT22;3875;46.562;4.898;2022-12-24T06:49:49;12.70;92.70
7666;DHT22;3875;46.562;4.898;2022-12-24T06:52:15;12.70;92.70
7666;DHT22;3875;46.562;4.898;2022-12-24T06:54:40;12.60;92.70
7666;DHT22;3875;46.562;4.898;2022-12-24T06:57:06;12.60;92.70
7666;DHT22;3875;46.562;4.898;2022-12-24T06:59:32;12.60;92.70
7666;DHT22;3875;46.562;4.898;2022-12-24T07:01:57;12.50;92.70
7666;DHT22;3875;46.562;4.898;2022-12-24T07:04:23;12.50;92.70
7666;DHT22;3875;46.562;4.898;2022-12-24T07:06:49;12.50;92.60
7666;DHT22;3875;46.562;4.898;2022-12-24T07:09:14;12.40;92.60
7666;DHT22;3875;46.562;4.898;2022-12-24T07:11:40;12.20;92.70
7666;DHT22;3875;46.562;4.898;2022-12-24T07:14:06;12.20;93.20
7666;DHT22;3875;46.562;4.898;2022-12-24T07:16:31;12.10;93.30
7666;DHT22;3875;46.562;4.898;2022-12-24T07:18:57;12.10;93.40
7666;DHT22;3875;46.562;4.898;2022-12-24T07:21:23;12.10;93.60
7666;DHT22;3875;46.562;4.898;2022-12-24T07:23:48;12.20;93.70
7666;DHT22;3875;46.562;4.898;2022-12-24T07:26:14;12.20;93.60
7666;DHT22;3875;46.562;4.898;2022-12-24T07:28:40;12.30;93.40
7666;DHT22;3875;46.562;4.898;2022-12-24T07:31:05;12.30;93.40
7666;DHT22;3875;46.562;4.898;2022-12-24T07:33:31;12.30;93.50
7666;DHT22;3875;46.562;4.898;2022-12-24T07:36:07;12.30;93.50
7666;DHT22;3875;46.562;4.898;2022-12-24T07:38:34;12.30;93.50
7666;DHT22;3875;46.562;4.898;2022-12-24T07:41:00;12.30;93.50
7666;DHT22;3875;46.562;4.898;2022-12-24T07:43:27;12.40;93.50
7666;DHT22;3875;46.562;4.898;2022-12-24T07:45:56;12.40;93.40
7666;DHT22;3875;46.562;4.898;2022-12-24T07:48:23;12.40;93.50
7666;DHT22;3875;46.562;4.898;2022-12-24T07:50:49;12.40;93.50
7666;DHT22;3875;46.562;4.898;2022-12-24T07:53:15;12.40;93.40
7666;DHT22;3875;46.562;4.898;2022-12-24T07:55:41;12.40;93.40
7666;DHT22;3875;46.562;4.898;2022-12-24T07:58:07;12.40;93.40
7666;DHT22;3875;46.562;4.898;2022-12-24T08:00:33;12.40;93.40
7666;DHT22;3875;46.562;4.898;2022-12-24T08:02:59;12.50;93.40
7666;DHT22;3875;46.562;4.898;2022-12-24T08:05:26;12.50;93.40
7666;DHT22;3875;46.562;4.898;2022-12-24T08:07:52;12.50;93.40
7666;DHT22;3875;46.562;4.898;2022-12-24T08:10:18;12.50;93.50
7666;DHT22;3875;46.562;4.898;2022-12-24T08:12:44;12.50;93.50
7666;DHT22;3875;46.562;4.898;2022-12-24T08:15:10;12.50;93.40
7666;DHT22;3875;46.562;4.898;2022-12-24T08:17:36;12.50;93.50
7666;DHT22;3875;46.562;4.898;2022-12-24T08:20:03;12.50;93.40
7666;DHT22;3875;46.562;4.898;2022-12-24T08:22:28;12.60;93.40
7666;DHT22;3875;46.562;4.898;2022-12-24T08:24:54;12.60;93.30
7666;DHT22;3875;46.562;4.898;2022-12-24T08:27:20;12.60;93.40
7666;DHT22;3875;46.562;4.898;2022-12-24T08:29:45;12.60;93.50
7666;DHT22;3875;46.562;4.898;2022-12-24T08:32:11;12.60;93.50
7666;DHT22;3875;46.562;4.898;2022-12-24T08:34:37;12.60;93.50
7666;DHT22;3875;46.562;4.898;2022-12-24T08:37:02;12.70;93.40
7666;DHT22;3875;46.562;4.898;2022-12-24T08:39:28;12.70;93.30
7666;DHT22;3875;46.562;4.898;2022-12-24T08:41:55;12.70;93.10
7666;DHT22;3875;46.562;4.898;2022-12-24T08:44:20;12.70;93.10
7666;DHT22;3875;46.562;4.898;2022-12-24T08:46:46;12.70;93.00
7666;DHT22;3875;46.562;4.898;2022-12-24T08:49:12;12.80;93.00
7666;DHT22;3875;46.562;4.898;2022-12-24T08:51:37;12.80;92.90
7666;DHT22;3875;46.562;4.898;2022-12-24T08:54:03;12.80;92.90
7666;DHT22;3875;46.562;4.898;2022-12-24T08:56:29;12.80;92.90
7666;DHT22;3875;46.562;4.898;2022-12-24T08:58:54;12.90;92.90
7666;DHT22;3875;46.562;4.898;2022-12-24T09:01:20;12.90;92.90
7666;DHT22;3875;46.562;4.898;2022-12-24T09:03:47;12.90;92.80
7666;DHT22;3875;46.562;4.898;2022-12-24T09:06:13;12.90;92.90
7666;DHT22;3875;46.562;4.898;2022-12-24T09:08:39;13.00;92.80
7666;DHT22;3875;46.562;4.898;2022-12-24T09:11:07;13.00;92.60
7666;DHT22;3875;46.562;4.898;2022-12-24T09:13:33;13.00;92.60
7666;DHT22;3875;46.562;4.898;2022-12-24T09:15:59;13.00;92.60
7666;DHT22;3875;46.562;4.898;2022-12-24T09:18:25;13.00;92.70
7666;DHT22;3875;46.562;4.898;2022-12-24T09:20:50;13.00;92.70
7666;DHT22;3875;46.562;4.898;2022-12-24T09:23:16;13.10;92.90
7666;DHT22;3875;46.562;4.898;2022-12-24T09:25:42;13.30;92.90
7666;DHT22;3875;46.562;4.898;2022-12-24T09:28:08;13.40;92.70
7666;DHT22;3875;46.562;4.898;2022-12-24T09:30:35;13.40;92.50
7666;DHT22;3875;46.562;4.898;2022-12-24T09:33:01;13.40;92.30
7666;DHT22;3875;46.562;4.898;2022-12-24T09:35:26;13.30;92.40
7666;DHT22;3875;46.562;4.898;2022-12-24T09:37:52;13.30;92.50
7666;DHT22;3875;46.562;4.898;2022-12-24T09:40:32;13.20;92.60
7666;DHT22;3875;46.562;4.898;2022-12-24T09:43:00;13.20;92.80
7666;DHT22;3875;46.562;4.898;2022-12-24T09:45:34;13.10;93.00
7666;DHT22;3875;46.562;4.898;2022-12-24T09:48:27;13.10;93.30
7666;DHT22;3875;46.562;4.898;2022-12-24T09:51:11;13.00;93.40
7666;DHT22;3875;46.562;4.898;2022-12-24T09:53:52;12.90;93.60
7666;DHT22;3875;46.562;4.898;2022-12-24T09:56:21;12.90;93.80
7666;DHT22;3875;46.562;4.898;2022-12-24T09:59:01;12.80;93.80
7666;DHT22;3875;46.562;4.898;2022-12-24T10:01:33;12.80;94.00
7666;DHT22;3875;46.562;4.898;2022-12-24T10:04:02;12.80;94.20
7666;DHT22;3875;46.562;4.898;2022-12-24T10:06:53;12.70;94.40
7666;DHT22;3875;46.562;4.898;2022-12-24T10:12:18;12.80;94.50
7666;DHT22;3875;46.562;4.898;2022-12-24T10:17:52;12.80;94.50
7666;DHT22;3875;46.562;4.898;2022-12-24T10:25:58;12.70;94.70
7666;DHT22;3875;46.562;4.898;2022-12-24T10:31:30;12.70;94.70
7666;DHT22;3875;46.562;4.898;2022-12-24T10:34:02;12.70;95.00
7666;DHT22;3875;46.562;4.898;2022-12-24T10:36:31;12.70;94.90
7666;DHT22;3875;46.562;4.898;2022-12-24T10:38:57;12.80;95.00
7666;DHT22;3875;46.562;4.898;2022-12-24T10:41:24;12.80;95.10
7666;DHT22;3875;46.562;4.898;2022-12-24T10:43:51;12.80;95.10
7666;DHT22;3875;46.562;4.898;2022-12-24T10:46:31;12.90;95.00
7666;DHT22;3875;46.562;4.898;2022-12-24T10:49:36;12.90;94.90
7666;DHT22;3875;46.562;4.898;2022-12-24T10:54:36;12.90;95.10
7666;DHT22;3875;46.562;4.898;2022-12-24T10:57:25;13.00;95.00
7666;DHT22;3875;46.562;4.898;2022-12-24T10:59:53;13.00;95.00
7666;DHT22;3875;46.562;4.898;2022-12-24T11:02:32;13.00;95.10
7666;DHT22;3875;46.562;4.898;2022-12-24T11:04:59;13.20;95.30
7666;DHT22;3875;46.562;4.898;2022-12-24T11:07:27;13.30;95.30
7666;DHT22;3875;46.562;4.898;2022-12-24T11:09:58;13.50;95.00
7666;DHT22;3875;46.562;4.898;2022-12-24T11:12:30;13.80;95.00
7666;DHT22;3875;46.562;4.898;2022-12-24T11:15:30;13.90;94.20
7666;DHT22;3875;46.562;4.898;2022-12-24T11:18:05;13.90;93.50
7666;DHT22;3875;46.562;4.898;2022-12-24T11:20:37;13.80;93.60
7666;DHT22;3875;46.562;4.898;2022-12-24T11:23:03;13.70;93.70
7666;DHT22;3875;46.562;4.898;2022-12-24T11:25:31;13.60;93.80
7666;DHT22;3875;46.562;4.898;2022-12-24T11:28:17;13.50;94.10
7666;DHT22;3875;46.562;4.898;2022-12-24T11:30:55;13.50;94.30
7666;DHT22;3875;46.562;4.898;2022-12-24T11:33:21;13.50;94.30
7666;DHT22;3875;46.562;4.898;2022-12-24T11:35:53;13.40;94.40
7666;DHT22;3875;46.562;4.898;2022-12-24T11:38:22;13.40;94.50
7666;DHT22;3875;46.562;4.898;2022-12-24T11:41:09;13.40;94.60
7666;DHT22;3875;46.562;4.898;2022-12-24T11:43:41;13.50;94.50
7666;DHT22;3875;46.562;4.898;2022-12-24T11:48:44;13.50;94.50
7666;DHT22;3875;46.562;4.898;2022-12-24T11:51:24;13.50;94.60
7666;DHT22;3875;46.562;4.898;2022-12-24T11:54:08;13.50;94.30
7666;DHT22;3875;46.562;4.898;2022-12-24T11:56:43;13.50;94.20
7666;DHT22;3875;46.562;4.898;2022-12-24T12:01:59;13.70;94.40
7666;DHT22;3875;46.562;4.898;2022-12-24T12:04:32;13.80;94.00
7666;DHT22;3875;46.562;4.898;2022-12-24T12:07:09;13.90;93.80
7666;DHT22;3875;46.562;4.898;2022-12-24T12:09:46;14.00;93.70
7666;DHT22;3875;46.562;4.898;2022-12-24T12:12:30;14.00;93.50
7666;DHT22;3875;46.562;4.898;2022-12-24T12:15:05;14.10;93.70
7666;DHT22;3875;46.562;4.898;2022-12-24T12:18:10;14.10;93.60
7666;DHT22;3875;46.562;4.898;2022-12-24T12:20:39;14.10;93.60
7666;DHT22;3875;46.562;4.898;2022-12-24T12:25:59;14.20;93.50
7666;DHT22;3875;46.562;4.898;2022-12-24T12:28:38;14.20;93.50
7666;DHT22;3875;46.562;4.898;2022-12-24T12:36:17;14.20;93.30
7666;DHT22;3875;46.562;4.898;2022-12-24T12:38:43;14.20;93.40
7666;DHT22;3875;46.562;4.898;2022-12-24T12:51:52;14.20;93.30
7666;DHT22;3875;46.562;4.898;2022-12-24T12:57:04;14.20;93.20
7666;DHT22;3875;46.562;4.898;2022-12-24T12:59:44;14.20;93.30
7666;DHT22;3875;46.562;4.898;2022-12-24T13:13:43;14.20;93.10
7666;DHT22;3875;46.562;4.898;2022-12-24T13:19:34;14.10;93.20
7666;DHT22;3875;46.562;4.898;2022-12-24T13:22:03;14.10;93.20
7666;DHT22;3875;46.562;4.898;2022-12-24T13:24:30;14.10;93.30
7666;DHT22;3875;46.562;4.898;2022-12-24T13:27:16;14.10;93.20
7666;DHT22;3875;46.562;4.898;2022-12-24T13:30:00;14.10;92.90
7666;DHT22;3875;46.562;4.898;2022-12-24T13:32:50;14.10;92.60
7666;DHT22;3875;46.562;4.898;2022-12-24T13:37:46;14.00;92.90
7666;DHT22;3875;46.562;4.898;2022-12-24T13:40:15;14.00;92.90
7666;DHT22;3875;46.562;4.898;2022-12-24T13:48:18;14.10;93.10
7666;DHT22;3875;46.562;4.898;2022-12-24T13:50:48;14.10;93.20
7666;DHT22;3875;46.562;4.898;2022-12-24T13:53:42;14.10;93.20
7666;DHT22;3875;46.562;4.898;2022-12-24T13:56:20;14.20;93.20
7666;DHT22;3875;46.562;4.898;2022-12-24T13:58:51;14.20;93.00
7666;DHT22;3875;46.562;4.898;2022-12-24T14:01:39;14.20;93.00
7666;DHT22;3875;46.562;4.898;2022-12-24T14:04:08;14.30;93.00
7666;DHT22;3875;46.562;4.898;2022-12-24T14:06:38;14.30;92.80
7666;DHT22;3875;46.562;4.898;2022-12-24T14:09:13;14.30;92.50
7666;DHT22;3875;46.562;4.898;2022-12-24T14:16:56;14.10;92.40
7666;DHT22;3875;46.562;4.898;2022-12-24T14:19:25;14.10;92.70
7666;DHT22;3875;46.562;4.898;2022-12-24T14:22:13;14.10;92.90
7666;DHT22;3875;46.562;4.898;2022-12-24T14:24:42;14.10;93.00
7666;DHT22;3875;46.562;4.898;2022-12-24T14:27:45;14.00;93.00
7666;DHT22;3875;46.562;4.898;2022-12-24T14:30:26;14.00;92.80
7666;DHT22;3875;46.562;4.898;2022-12-24T14:32:53;13.90;92.80
7666;DHT22;3875;46.562;4.898;2022-12-24T14:35:34;13.90;92.70
7666;DHT22;3875;46.562;4.898;2022-12-24T14:38:07;13.80;92.70
7666;DHT22;3875;46.562;4.898;2022-12-24T14:43:39;13.80;92.80
7666;DHT22;3875;46.562;4.898;2022-12-24T14:46:23;13.80;92.80
7666;DHT22;3875;46.562;4.898;2022-12-24T14:49:11;13.80;93.00
7666;DHT22;3875;46.562;4.898;2022-12-24T14:54:29;13.80;93.40
7666;DHT22;3875;46.562;4.898;2022-12-24T14:57:22;13.80;93.10
7666;DHT22;3875;46.562;4.898;2022-12-24T14:59:51;13.80;93.10
7666;DHT22;3875;46.562;4.898;2022-12-24T15:02:45;13.80;93.20
7666;DHT22;3875;46.562;4.898;2022-12-24T15:08:02;13.90;93.10
7666;DHT22;3875;46.562;4.898;2022-12-24T15:10:35;13.80;92.80
7666;DHT22;3875;46.562;4.898;2022-12-24T15:13:08;13.80;93.00
7666;DHT22;3875;46.562;4.898;2022-12-24T15:15:42;13.80;92.90
7666;DHT22;3875;46.562;4.898;2022-12-24T15:18:14;13.80;92.90
7666;DHT22;3875;46.562;4.898;2022-12-24T15:20:45;13.70;93.00
7666;DHT22;3875;46.562;4.898;2022-12-24T15:23:26;13.70;93.00
7666;DHT22;3875;46.562;4.898;2022-12-24T15:26:47;13.70;93.00
7666;DHT22;3875;46.562;4.898;2022-12-24T15:28:55;13.70;93.00
7666;DHT22;3875;46.562;4.898;2022-12-24T15:31:24;13.60;93.00
7666;DHT22;3875;46.562;4.898;2022-12-24T15:33:55;13.60;93.20
7666;DHT22;3875;46.562;4.898;2022-12-24T15:36:39;13.60;93.20
7666;DHT22;3875;46.562;4.898;2022-12-24T15:39:07;13.60;93.20
7666;DHT22;3875;46.562;4.898;2022-12-24T15:41:41;13.60;93.20
7666;DHT22;3875;46.562;4.898;2022-12-24T15:44:30;13.60;93.20
7666;DHT22;3875;46.562;4.898;2022-12-24T15:47:03;13.50;93.40
7666;DHT22;3875;46.562;4.898;2022-12-24T15:49:31;13.50;93.40
7666;DHT22;3875;46.562;4.898;2022-12-24T15:52:12;13.50;93.30
7666;DHT22;3875;46.562;4.898;2022-12-24T15:54:47;13.50;93.40
7666;DHT22;3875;46.562;4.898;2022-12-24T15:57:28;13.50;93.40
7666;DHT22;3875;46.562;4.898;2022-12-24T15:59:56;13.50;93.30
7666;DHT22;3875;46.562;4.898;2022-12-24T16:02:43;13.40;93.50
7666;DHT22;3875;46.562;4.898;2022-12-24T16:10:40;13.40;93.70
7666;DHT22;3875;46.562;4.898;2022-12-24T16:13:21;13.40;93.80
7666;DHT22;3875;46.562;4.898;2022-12-24T16:15:57;13.40;93.70
7666;DHT22;3875;46.562;4.898;2022-12-24T16:19:14;13.40;93.60
7666;DHT22;3875;46.562;4.898;2022-12-24T16:21:29;13.40;93.60
7666;DHT22;3875;46.562;4.898;2022-12-24T16:23:57;13.40;93.50
7666;DHT22;3875;46.562;4.898;2022-12-24T16:26:29;13.40;93.50
7666;DHT22;3875;46.562;4.898;2022-12-24T16:28:54;13.40;93.40
7666;DHT22;3875;46.562;4.898;2022-12-24T16:31:53;13.40;93.40
7666;DHT22;3875;46.562;4.898;2022-12-24T16:34:22;13.40;93.60
7666;DHT22;3875;46.562;4.898;2022-12-24T16:36:48;13.30;93.80
7666;DHT22;3875;46.562;4.898;2022-12-24T16:39:26;13.30;93.80
7666;DHT22;3875;46.562;4.898;2022-12-24T16:41:57;13.30;94.00
7666;DHT22;3875;46.562;4.898;2022-12-24T16:44:41;13.30;94.00
7666;DHT22;3875;46.562;4.898;2022-12-24T16:47:19;13.30;93.80
7666;DHT22;3875;46.562;4.898;2022-12-24T16:49:45;13.30;93.50
7666;DHT22;3875;46.562;4.898;2022-12-24T16:52:26;13.30;93.60
7666;DHT22;3875;46.562;4.898;2022-12-24T16:54:54;13.20;93.70
7666;DHT22;3875;46.562;4.898;2022-12-24T16:57:20;13.20;94.00
7666;DHT22;3875;46.562;4.898;2022-12-24T16:59:46;13.20;94.00
7666;DHT22;3875;46.562;4.898;2022-12-24T17:02:14;13.20;94.20
7666;DHT22;3875;46.562;4.898;2022-12-24T17:04:40;13.20;94.20
7666;DHT22;3875;46.562;4.898;2022-12-24T17:07:06;13.20;94.00
7666;DHT22;3875;46.562;4.898;2022-12-24T17:09:32;13.20;93.80
7666;DHT22;3875;46.562;4.898;2022-12-24T17:11:58;13.20;93.70
7666;DHT22;3875;46.562;4.898;2022-12-24T17:14:24;13.20;93.80
7666;DHT22;3875;46.562;4.898;2022-12-24T17:16:49;13.20;94.00
7666;DHT22;3875;46.562;4.898;2022-12-24T17:19:15;13.10;94.00
7666;DHT22;3875;46.562;4.898;2022-12-24T17:21:42;13.10;94.20
7666;DHT22;3875;46.562;4.898;2022-12-24T17:24:07;13.10;94.20
7666;DHT22;3875;46.562;4.898;2022-12-24T17:26:34;13.10;94.30
7666;DHT22;3875;46.562;4.898;2022-12-24T17:28:59;13.10;94.30
7666;DHT22;3875;46.562;4.898;2022-12-24T17:31:28;13.10;94.40
7666;DHT22;3875;46.562;4.898;2022-12-24T17:33:54;13.10;94.40
7666;DHT22;3875;46.562;4.898;2022-12-24T17:36:19;13.00;94.30
7666;DHT22;3875;46.562;4.898;2022-12-24T17:38:45;13.00;94.30
7666;DHT22;3875;46.562;4.898;2022-12-24T17:41:14;13.00;94.40
7666;DHT22;3875;46.562;4.898;2022-12-24T17:43:40;13.00;94.50
7666;DHT22;3875;46.562;4.898;2022-12-24T17:46:07;13.00;94.50
7666;DHT22;3875;46.562;4.898;2022-12-24T17:48:33;13.00;94.50
7666;DHT22;3875;46.562;4.898;2022-12-24T17:51:09;13.00;94.50
7666;DHT22;3875;46.562;4.898;2022-12-24T17:53:39;12.90;94.50
7666;DHT22;3875;46.562;4.898;2022-12-24T17:56:07;12.90;94.60
7666;DHT22;3875;46.562;4.898;2022-12-24T17:58:35;12.90;94.50
7666;DHT22;3875;46.562;4.898;2022-12-24T18:01:01;12.90;94.50
7666;DHT22;3875;46.562;4.898;2022-12-24T18:03:27;12.90;94.50
7666;DHT22;3875;46.562;4.898;2022-12-24T18:05:53;12.90;94.60
7666;DHT22;3875;46.562;4.898;2022-12-24T18:08:19;12.90;94.50
7666;DHT22;3875;46.562;4.898;2022-12-24T18:10:45;12.80;94.60